ADDS TAF Data INFO
IDs: Format: Raw Decoded Include METARs

Data at: 1535 UTC 23 Jun 2018

KSBY 231327Z 2313/2412 14003KT P6SM BKN006
  FM231600 21008KT P6SM BKN020
  FM231700 22010KT P6SM VCSH BKN050
  FM240100 21004KT P6SM BKN100